Meteo Giornale » Osservazioni meteo Italia » Brescia-Ghedi

ore: 07:55 - Osservazioni Meteo Brescia-Ghedi
Lat. 45° 25' N Lon. 10° 17' E Alt. 102 metri s.l.m.

sereno Europe/Rome

17 °C

Sereno

Temp. 24 Ore

14 °C

27 °C

Nord

0 Km/h

Dew point 16 °C

Umidità 93 %

Visibilità  10 Km

Il sole sorge alle ore 05:56

Il sole tramonta alle ore 20:54

Data e Ora Cielo e Fenomeni T °C DP °C Um. % Pres. hPa Vis. km Vento km/h
Oggi h: 07:55 sereno Sereno 17 16 93 1009 10 N 0
Oggi h: 06:55 sereno Sereno 14 14 100 1008 10 N 0
Oggi h: 04:55 sereno Sereno 15 15 100 1008 10 N 0
Oggi h: 03:55 sereno Sereno 16 16 100 1008 10 N 0
Oggi h: 02:55 sereno Sereno 16 16 100 1007 10 N 0
Oggi h: 01:55 sereno Sereno 16 16 100 1007 10 N 0
Oggi h: 00:55 sereno Sereno 17 17 100 1006 10 N 0
Ieri h: 23:55 sereno Sereno 18 16 88 1006 10 N 0
Ieri h: 22:55 sereno Sereno 19 15 77 1005 10 N 0
Ieri h: 21:55 sereno Sereno 21 15 68 1005 10 N 0
Ieri h: 20:55 sereno Sereno 23 13 53 1005 10 N 0
Ieri h: 19:55 poco_nuvoloso Poco Nuvoloso 24 12 47 1004 10 N 0
Ieri h: 18:55 poco_nuvoloso Poco Nuvoloso 27 12 39 1004 10 N 0
Ieri h: 17:55 nuvoloso Nuvoloso 25 12 44 1004 10 N 0
Ieri h: 16:55 nuvoloso Nuvoloso 25 11 41 1004 10 N 0
Ieri h: 15:55 nuvoloso Nuvoloso 26 12 41 1005 10 N 0
Ieri h: 14:55 nuvoloso Nuvoloso 26 11 39 1005 10 N 0
Ieri h: 13:55 nuvoloso Nuvoloso 27 11 36 1005 10 N 0
Ieri h: 12:55 poco_nuvoloso Poco Nuvoloso 26 12 41 1005 10 N 0
Ieri h: 11:55 poco_nuvoloso Poco Nuvoloso 24 14 53 1005 10 N 0
Ieri h: 10:55 poco_nuvoloso Poco Nuvoloso 21 14 64 1005 10 N 0
Ieri h: 09:55 poco_nuvoloso Poco Nuvoloso 20 14 68 1005 10 N 0
Ieri h: 08:55 poco_nuvoloso Poco Nuvoloso 19 13 68 1005 10 N 0